createdAt,value
2022-07-25T00:00:09.443Z,23.59
2022-07-25T00:05:11.037Z,23.52
2022-07-25T00:10:12.602Z,23.51
2022-07-25T00:15:14.225Z,23.52
2022-07-25T00:20:15.790Z,23.45
2022-07-25T00:25:17.242Z,23.37
2022-07-25T00:30:18.783Z,23.28
2022-07-25T00:35:20.394Z,23.13
2022-07-25T00:40:22.490Z,22.98
2022-07-25T00:45:23.963Z,22.92
2022-07-25T00:50:25.566Z,22.88
2022-07-25T00:55:27.489Z,22.81
2022-07-25T01:00:29.106Z,22.75
2022-07-25T01:05:31.805Z,22.61
2022-07-25T01:10:34.376Z,22.46
2022-07-25T01:15:36.093Z,22.38
2022-07-25T01:20:37.788Z,22.30
2022-07-25T01:25:39.381Z,22.20
2022-07-25T01:30:41.015Z,22.02
2022-07-25T01:35:43.656Z,21.88
2022-07-25T01:40:45.293Z,21.81
2022-07-25T01:45:46.843Z,21.74
2022-07-25T01:50:48.455Z,21.70
2022-07-25T01:55:50.558Z,21.67
2022-07-25T02:00:53.742Z,21.60
2022-07-25T02:05:55.663Z,21.52
2022-07-25T02:10:58.022Z,21.43
2022-07-25T02:16:00.043Z,21.34
2022-07-25T02:21:01.629Z,21.27
2022-07-25T02:26:03.854Z,21.16
2022-07-25T02:31:05.668Z,20.96
2022-07-25T02:36:07.883Z,20.83
2022-07-25T02:41:09.424Z,20.81
2022-07-25T02:46:11.069Z,20.81
2022-07-25T02:51:12.813Z,20.82
2022-07-25T02:56:14.277Z,20.83
2022-07-25T03:01:16.313Z,20.83
2022-07-25T03:06:18.170Z,20.78
2022-07-25T03:11:19.723Z,20.79
2022-07-25T03:16:21.417Z,20.77
2022-07-25T03:21:22.968Z,20.76
2022-07-25T03:26:24.514Z,20.63
2022-07-25T03:31:26.561Z,20.59
2022-07-25T03:36:28.207Z,20.53
2022-07-25T03:41:29.708Z,20.38
2022-07-25T03:46:31.275Z,20.32
2022-07-25T03:51:32.788Z,20.29
2022-07-25T03:56:48.130Z,20.31
2022-07-25T04:01:50.609Z,20.33
2022-07-25T04:06:52.108Z,20.33
2022-07-25T04:11:53.558Z,20.33
2022-07-25T04:16:55.122Z,20.41
2022-07-25T04:21:56.717Z,20.77
2022-07-25T04:26:58.230Z,21.70
2022-07-25T04:31:59.734Z,23.17
2022-07-25T04:37:01.292Z,24.83
2022-07-25T04:42:02.744Z,26.42
2022-07-25T04:47:04.895Z,27.69
2022-07-25T04:52:06.363Z,28.27
2022-07-25T04:57:07.837Z,29.63
2022-07-25T05:02:09.340Z,31.99
2022-07-25T05:07:10.825Z,34.12
2022-07-25T05:12:12.354Z,35.80
2022-07-25T05:17:14.668Z,37.05
2022-07-25T05:22:16.198Z,37.66
2022-07-25T05:27:17.748Z,38.67
2022-07-25T05:32:19.507Z,39.94
2022-07-25T05:37:21.058Z,40.39
2022-07-25T05:42:22.835Z,40.43
2022-07-25T05:47:24.301Z,42.07
2022-07-25T05:52:25.786Z,43.60
2022-07-25T05:57:27.568Z,44.64
2022-07-25T06:02:29.192Z,44.09
2022-07-25T06:07:30.739Z,44.18
2022-07-25T06:12:33.692Z,44.97
2022-07-25T06:17:38.259Z,45.21
2022-07-25T06:22:40.327Z,44.92
2022-07-25T06:27:42.037Z,45.44
2022-07-25T06:32:43.493Z,46.35
2022-07-25T06:37:45.376Z,47.31
2022-07-25T06:42:47.847Z,47.96
2022-07-25T06:47:49.420Z,48.39
2022-07-25T06:52:51.039Z,48.17
2022-07-25T06:57:52.528Z,48.14
2022-07-25T07:03:01.438Z,47.81
2022-07-25T07:08:03.761Z,47.41
2022-07-25T07:13:10.647Z,46.71
2022-07-25T07:18:12.110Z,44.96
2022-07-25T07:23:16.515Z,44.85
2022-07-25T07:28:18.810Z,44.87
2022-07-25T07:33:20.357Z,44.75
2022-07-25T07:38:21.903Z,45.76
2022-07-25T07:43:29.364Z,46.43
2022-07-25T07:48:33.658Z,47.44
2022-07-25T07:53:53.589Z,48.83
2022-07-25T07:58:55.091Z,46.95
2022-07-25T08:03:56.739Z,47.32
2022-07-25T08:08:58.189Z,46.82
2022-07-25T08:13:59.732Z,48.20
2022-07-25T08:19:01.405Z,48.87
2022-07-25T08:24:03.223Z,48.95
2022-07-25T08:29:18.812Z,47.90
2022-07-25T08:34:22.493Z,47.34
2022-07-25T08:39:24.085Z,47.51
2022-07-25T08:44:30.961Z,49.36
2022-07-25T08:49:32.374Z,48.55
2022-07-25T08:54:33.912Z,47.31
2022-07-25T08:59:35.650Z,46.43
2022-07-25T09:04:38.081Z,47.68
2022-07-25T09:09:39.724Z,48.03
2022-07-25T09:14:44.644Z,47.29
2022-07-25T09:19:54.730Z,46.36
2022-07-25T09:24:56.319Z,46.96
2022-07-25T09:29:57.872Z,47.37
2022-07-25T09:34:59.326Z,47.59
2022-07-25T09:40:00.818Z,47.51
2022-07-25T09:45:06.667Z,46.88
2022-07-25T09:50:08.710Z,46.93
2022-07-25T09:55:11.019Z,46.43
2022-07-25T10:00:19.274Z,46.01
2022-07-25T10:05:31.554Z,45.07
2022-07-25T10:10:41.301Z,44.66
2022-07-25T10:15:53.138Z,44.23
2022-07-25T10:21:26.914Z,42.44
2022-07-25T10:26:30.468Z,40.72
2022-07-25T10:31:31.900Z,40.62
2022-07-25T10:36:56.080Z,41.05
2022-07-25T10:42:02.361Z,40.31
2022-07-25T10:47:08.726Z,40.20
2022-07-25T10:52:18.842Z,40.14
2022-07-25T10:57:20.997Z,40.00
2022-07-25T11:02:24.309Z,40.58
2022-07-25T11:07:28.631Z,40.31
2022-07-25T11:12:31.249Z,39.77
2022-07-25T11:17:32.867Z,39.67
2022-07-25T11:22:35.406Z,39.99
2022-07-25T11:27:36.904Z,39.92
2022-07-25T11:32:43.832Z,39.86
2022-07-25T11:37:48.846Z,39.67
2022-07-25T11:42:52.499Z,39.10
2022-07-25T11:48:10.112Z,39.12
2022-07-25T11:53:14.726Z,39.20
2022-07-25T11:58:17.707Z,39.46
2022-07-25T12:03:23.114Z,39.43
2022-07-25T12:08:25.458Z,38.89
2022-07-25T12:13:31.216Z,38.61
2022-07-25T12:18:32.719Z,38.14
2022-07-25T12:23:34.553Z,38.35
2022-07-25T12:28:36.150Z,38.73
2022-07-25T12:33:37.820Z,39.05
2022-07-25T12:38:39.515Z,38.53
2022-07-25T12:43:40.950Z,38.23
2022-07-25T12:48:42.503Z,38.40
2022-07-25T12:53:44.154Z,38.57
2022-07-25T12:58:45.827Z,38.67
2022-07-25T13:03:47.391Z,38.55
2022-07-25T13:08:48.928Z,38.52
2022-07-25T13:13:50.427Z,38.73
2022-07-25T13:18:52.086Z,38.53
2022-07-25T13:23:53.554Z,38.31
2022-07-25T13:28:59.645Z,38.40
2022-07-25T13:34:02.684Z,38.19
2022-07-25T13:39:05.160Z,38.16
2022-07-25T13:44:07.012Z,38.00
2022-07-25T13:49:09.349Z,37.99
2022-07-25T13:54:12.571Z,37.77
2022-07-25T13:59:18.948Z,37.29
2022-07-25T14:04:22.810Z,36.87
2022-07-25T14:09:24.351Z,36.45
2022-07-25T14:14:25.916Z,35.82
2022-07-25T14:19:27.437Z,35.13
2022-07-25T14:24:28.885Z,34.53
2022-07-25T14:29:30.764Z,34.10
2022-07-25T14:34:32.822Z,33.95
2022-07-25T14:39:34.541Z,33.93
2022-07-25T14:44:37.388Z,34.08
2022-07-25T14:49:40.212Z,34.11
2022-07-25T14:54:41.968Z,33.83
2022-07-25T14:59:43.455Z,33.26
2022-07-25T15:04:45.050Z,32.89
2022-07-25T15:09:46.650Z,32.67
2022-07-25T15:14:48.127Z,32.53
2022-07-25T15:19:49.653Z,32.39
2022-07-25T15:25:21.821Z,32.31
2022-07-25T15:30:12.649Z,32.21
2022-07-25T15:35:14.898Z,32.35
2022-07-25T15:40:16.406Z,32.58
2022-07-25T15:45:36.251Z,32.94
2022-07-25T15:50:40.469Z,33.23
2022-07-25T15:55:42.406Z,33.47
2022-07-25T16:00:44.080Z,33.90
2022-07-25T16:05:45.715Z,34.04
2022-07-25T16:10:47.544Z,34.11
2022-07-25T16:15:49.125Z,34.25
2022-07-25T16:20:50.618Z,34.51
2022-07-25T16:25:52.125Z,34.55
2022-07-25T16:30:53.660Z,34.41
2022-07-25T16:35:55.147Z,34.08
2022-07-25T16:40:56.575Z,33.86
2022-07-25T16:45:58.102Z,33.67
2022-07-25T16:50:59.717Z,33.48
2022-07-25T16:56:01.198Z,33.38
2022-07-25T17:01:02.690Z,33.26
2022-07-25T17:06:04.508Z,33.05
2022-07-25T17:11:06.142Z,32.90
2022-07-25T17:16:07.898Z,32.79
2022-07-25T17:21:10.583Z,32.60
2022-07-25T17:26:12.166Z,32.39
2022-07-25T17:31:14.313Z,32.09
2022-07-25T17:36:15.941Z,31.86
2022-07-25T17:41:17.878Z,31.56
2022-07-25T17:46:19.366Z,31.26
2022-07-25T17:51:20.847Z,30.88
2022-07-25T17:56:22.342Z,30.67
2022-07-25T18:01:23.925Z,30.43
2022-07-25T18:06:29.745Z,30.24
2022-07-25T18:11:31.738Z,30.08
2022-07-25T18:16:33.527Z,29.93
2022-07-25T18:21:35.052Z,29.85
2022-07-25T18:26:36.539Z,29.74
2022-07-25T18:31:38.113Z,29.61
2022-07-25T18:36:40.450Z,29.45
2022-07-25T18:41:42.020Z,29.32
2022-07-25T18:46:45.688Z,29.15
2022-07-25T18:51:47.309Z,28.98
2022-07-25T18:56:48.904Z,28.82
2022-07-25T19:01:51.213Z,28.64
2022-07-25T19:06:52.844Z,28.47
2022-07-25T19:11:56.714Z,28.30
2022-07-25T19:17:18.967Z,28.10
2022-07-25T19:22:20.850Z,27.93
2022-07-25T19:27:24.947Z,27.75
2022-07-25T19:32:27.120Z,27.59
2022-07-25T19:37:29.094Z,27.48
2022-07-25T19:42:30.562Z,27.38
2022-07-25T19:47:32.033Z,27.28
2022-07-25T19:52:33.522Z,27.20
2022-07-25T19:57:35.428Z,27.07
2022-07-25T20:02:37.014Z,26.89
2022-07-25T20:07:38.936Z,26.68
2022-07-25T20:12:40.414Z,26.57
2022-07-25T20:17:41.936Z,26.49
2022-07-25T20:22:44.287Z,26.45
2022-07-25T20:27:49.791Z,26.42
2022-07-25T20:32:51.405Z,26.35
2022-07-25T20:37:53.022Z,26.24
2022-07-25T20:42:55.677Z,26.16
2022-07-25T20:47:57.249Z,26.09
2022-07-25T20:52:58.821Z,25.97
2022-07-25T20:58:00.470Z,25.84
2022-07-25T21:03:02.118Z,25.71
2022-07-25T21:08:04.740Z,25.59
2022-07-25T21:13:06.220Z,25.40
2022-07-25T21:18:07.670Z,25.21
2022-07-25T21:23:10.805Z,25.05
2022-07-25T21:28:12.324Z,24.95
2022-07-25T21:33:14.818Z,24.91
2022-07-25T21:38:27.573Z,24.86
2022-07-25T21:43:29.826Z,24.86
2022-07-25T21:48:49.598Z,24.81
2022-07-25T21:53:52.817Z,24.77
2022-07-25T21:58:54.252Z,24.71
2022-07-25T22:03:55.748Z,24.78
2022-07-25T22:08:57.398Z,24.91
2022-07-25T22:13:58.851Z,24.82
2022-07-25T22:19:01.258Z,24.77
2022-07-25T22:24:02.741Z,24.83
2022-07-25T22:29:04.724Z,24.98
2022-07-25T22:34:07.033Z,25.08
2022-07-25T22:39:08.940Z,25.11
2022-07-25T22:44:10.948Z,25.18
2022-07-25T22:49:13.272Z,25.23
2022-07-25T22:54:14.947Z,25.27
2022-07-25T22:59:17.852Z,25.27
2022-07-25T23:04:19.406Z,25.26
2022-07-25T23:09:21.039Z,25.25
2022-07-25T23:14:22.505Z,25.24
2022-07-25T23:19:23.970Z,25.16
2022-07-25T23:24:25.475Z,25.10
2022-07-25T23:29:27.010Z,25.11
2022-07-25T23:34:28.567Z,25.11
2022-07-25T23:39:31.726Z,25.10
2022-07-25T23:44:33.310Z,25.11
2022-07-25T23:49:38.080Z,25.12
2022-07-25T23:54:40.609Z,25.12
2022-07-25T23:59:42.125Z,25.08
